createdAt,value
2022-07-31T00:00:08.608Z,101121.56
2022-07-31T00:02:35.365Z,101121.88
2022-07-31T00:05:02.564Z,101121.59
2022-07-31T00:07:29.023Z,101117.94
2022-07-31T00:09:56.176Z,101117.38
2022-07-31T00:12:23.004Z,101117.13
2022-07-31T00:14:49.731Z,101114.88
2022-07-31T00:17:16.190Z,101110.38
2022-07-31T00:19:42.810Z,101103.13
2022-07-31T00:22:09.353Z,101105.66
2022-07-31T00:24:35.743Z,101102.53
2022-07-31T00:27:02.489Z,101103.09
2022-07-31T00:29:29.111Z,101107.03
2022-07-31T00:31:55.539Z,101100.84
2022-07-31T00:34:22.134Z,101098.34
2022-07-31T00:36:48.793Z,101101.41
2022-07-31T00:39:15.777Z,101088.53
2022-07-31T00:41:44.669Z,101096.38
2022-07-31T00:44:12.684Z,101100.88
2022-07-31T00:46:40.196Z,101102.56
2022-07-31T00:49:10.062Z,101100.31
2022-07-31T00:51:40.854Z,101100.03
2022-07-31T00:54:08.615Z,101099.75
2022-07-31T00:56:35.538Z,101094.72
2022-07-31T00:59:02.605Z,101097.50
2022-07-31T01:01:29.289Z,101092.47
2022-07-31T01:03:55.775Z,101090.81
2022-07-31T01:06:22.364Z,101086.31
2022-07-31T01:08:48.924Z,101081.84
2022-07-31T01:11:36.131Z,101091.63
2022-07-31T01:14:09.292Z,101079.56
2022-07-31T01:16:40.643Z,101080.69
2022-07-31T01:19:40.861Z,101075.06
2022-07-31T01:22:32.977Z,101080.94
2022-07-31T01:25:15.717Z,101078.13
2022-07-31T01:28:08.161Z,101078.38
2022-07-31T01:31:17.282Z,101079.50
2022-07-31T01:33:50.753Z,101080.06
2022-07-31T01:36:22.055Z,101078.38
2022-07-31T01:38:53.935Z,101078.38
2022-07-31T01:41:26.693Z,101078.66
2022-07-31T01:43:55.720Z,101072.78
2022-07-31T01:46:24.914Z,101070.25
2022-07-31T01:48:54.766Z,101074.19
2022-07-31T01:51:22.770Z,101062.16
2022-07-31T01:53:51.084Z,101063.25
2022-07-31T01:56:19.225Z,101070.81
2022-07-31T01:58:48.265Z,101070.81
2022-07-31T02:01:15.543Z,101066.03
2022-07-31T02:03:45.392Z,101063.78
2022-07-31T02:06:14.837Z,101064.88
2022-07-31T02:08:45.001Z,101066.59
2022-07-31T02:11:12.359Z,101063.75
2022-07-31T02:13:38.858Z,101055.94
2022-07-31T02:16:06.409Z,101059.28
2022-07-31T02:18:34.751Z,101061.50
2022-07-31T02:21:01.436Z,101067.63
2022-07-31T02:23:29.952Z,101065.94
2022-07-31T02:25:57.406Z,101070.13
2022-07-31T02:28:24.527Z,101063.13
2022-07-31T02:30:52.049Z,101062.53
2022-07-31T02:33:21.943Z,101065.59
2022-07-31T02:35:50.997Z,101067.00
2022-07-31T02:38:23.242Z,101068.94
2022-07-31T02:40:53.139Z,101071.72
2022-07-31T02:43:20.758Z,101077.56
2022-07-31T02:45:47.930Z,101067.50
2022-07-31T02:48:14.807Z,101060.22
2022-07-31T02:50:42.439Z,101071.66
2022-07-31T02:53:08.978Z,101057.97
2022-07-31T02:55:36.096Z,101058.53
2022-07-31T02:58:03.622Z,101045.38
2022-07-31T03:00:30.887Z,101045.91
2022-07-31T03:02:58.231Z,101056.25
2022-07-31T03:05:24.894Z,101050.06
2022-07-31T03:07:51.629Z,101047.81
2022-07-31T03:10:18.356Z,101055.66
2022-07-31T03:12:47.596Z,101048.38
2022-07-31T03:15:16.440Z,101051.44
2022-07-31T03:17:45.256Z,101050.63
2022-07-31T03:20:15.181Z,101057.31
2022-07-31T03:22:42.975Z,101046.13
2022-07-31T03:25:10.390Z,101045.84
2022-07-31T03:27:36.880Z,101044.72
2022-07-31T03:30:04.936Z,101046.13
2022-07-31T03:32:31.376Z,101037.75
2022-07-31T03:34:57.859Z,101037.75
2022-07-31T03:37:24.288Z,101038.84
2022-07-31T03:39:50.708Z,101032.69
2022-07-31T03:42:19.371Z,101031.84
2022-07-31T03:44:47.888Z,101029.06
2022-07-31T03:47:16.670Z,101043.03
2022-07-31T03:49:43.867Z,101043.28
2022-07-31T03:52:12.613Z,101039.66
2022-07-31T03:54:40.615Z,101036.59
2022-07-31T03:57:08.476Z,101032.69
2022-07-31T03:59:40.729Z,101042.75
2022-07-31T04:02:17.209Z,101032.69
2022-07-31T04:04:45.405Z,101041.09
2022-07-31T04:07:11.968Z,101032.41
2022-07-31T04:09:38.688Z,101035.22
2022-07-31T04:12:06.074Z,101041.09
2022-07-31T04:14:32.964Z,101038.53
2022-07-31T04:16:59.626Z,101044.41
2022-07-31T04:19:26.064Z,101038.00
2022-07-31T04:21:52.513Z,101043.88
2022-07-31T04:24:20.833Z,101049.47
2022-07-31T04:26:49.651Z,101039.44
2022-07-31T04:29:17.041Z,101041.94
2022-07-31T04:31:43.448Z,101029.38
2022-07-31T04:34:09.849Z,101035.53
2022-07-31T04:36:36.374Z,101033.03
2022-07-31T04:39:03.028Z,101027.75
2022-07-31T04:41:29.536Z,101024.69
2022-07-31T04:43:59.906Z,101030.56
2022-07-31T04:46:26.716Z,101023.00
2022-07-31T04:48:53.492Z,101021.03
2022-07-31T04:51:23.420Z,101018.00
2022-07-31T04:53:51.065Z,101021.63
2022-07-31T04:56:35.668Z,101020.25
2022-07-31T04:59:05.352Z,101017.72
2022-07-31T05:01:32.559Z,101028.38
2022-07-31T05:03:59.591Z,101031.75
2022-07-31T05:06:46.763Z,101025.38
2022-07-31T05:09:19.230Z,101022.03
2022-07-31T05:11:49.809Z,101029.00
2022-07-31T05:14:18.985Z,101020.06
2022-07-31T05:16:45.799Z,101030.69
2022-07-31T05:19:13.791Z,101027.63
2022-07-31T05:21:53.173Z,101036.88
2022-07-31T05:24:33.093Z,101041.63
2022-07-31T05:27:02.330Z,101046.94
2022-07-31T05:29:29.254Z,101054.22
2022-07-31T05:31:59.410Z,101052.00
2022-07-31T05:34:29.241Z,101036.59
2022-07-31T05:36:57.211Z,101043.88
2022-07-31T05:39:25.083Z,101041.94
2022-07-31T05:41:52.736Z,101052.88
2022-07-31T05:44:19.226Z,101048.16
2022-07-31T05:46:45.744Z,101051.50
2022-07-31T05:49:12.285Z,101043.09
2022-07-31T05:51:38.765Z,101049.56
2022-07-31T05:54:05.243Z,101051.53
2022-07-31T05:56:31.676Z,101050.41
2022-07-31T05:58:58.108Z,101043.69
2022-07-31T06:01:24.554Z,101043.47
2022-07-31T06:03:52.086Z,101048.22
2022-07-31T06:06:19.113Z,101048.50
2022-07-31T06:08:45.593Z,101052.72
2022-07-31T06:11:12.082Z,101052.41
2022-07-31T06:13:38.493Z,101046.78
2022-07-31T06:16:11.188Z,101056.31
2022-07-31T06:18:37.618Z,101040.91
2022-07-31T06:21:04.195Z,101039.75
2022-07-31T06:23:32.251Z,101037.75
2022-07-31T06:25:58.932Z,101039.16
2022-07-31T06:28:47.599Z,101032.38
2022-07-31T06:31:19.326Z,101036.25
2022-07-31T06:33:48.049Z,101040.69
2022-07-31T06:36:15.350Z,101035.06
2022-07-31T06:38:41.835Z,101037.56
2022-07-31T06:41:08.242Z,101038.06
2022-07-31T06:43:34.633Z,101037.47
2022-07-31T06:46:01.040Z,101034.63
2022-07-31T06:48:27.522Z,101034.28
2022-07-31T06:51:14.476Z,101021.84
2022-07-31T06:53:41.509Z,101023.16
2022-07-31T06:56:07.890Z,101026.16
2022-07-31T06:58:34.376Z,101021.63
2022-07-31T07:01:00.784Z,101024.75
2022-07-31T07:03:27.218Z,101018.22
2022-07-31T07:05:53.644Z,101021.03
2022-07-31T07:08:20.051Z,101012.56
2022-07-31T07:10:46.484Z,101012.22
2022-07-31T07:13:12.920Z,101006.25
2022-07-31T07:15:39.316Z,101006.13
2022-07-31T07:18:06.909Z,100999.88
2022-07-31T07:20:33.411Z,101002.03
2022-07-31T07:22:59.801Z,100997.22
2022-07-31T07:25:26.219Z,100998.81
2022-07-31T07:27:53.702Z,101000.50
2022-07-31T07:30:20.128Z,100993.44
2022-07-31T07:32:46.511Z,100997.00
2022-07-31T07:35:12.921Z,100994.44
2022-07-31T07:37:40.950Z,101000.00
2022-07-31T07:40:08.989Z,100995.75
2022-07-31T07:42:35.493Z,100990.34
2022-07-31T07:45:03.425Z,100992.59
2022-07-31T07:47:53.711Z,101000.72
2022-07-31T07:50:22.818Z,101004.06
2022-07-31T07:52:54.138Z,100996.19
2022-07-31T07:55:20.592Z,101006.84
2022-07-31T07:57:46.994Z,100997.03
2022-07-31T08:00:13.996Z,101007.69
2022-07-31T08:02:41.257Z,100999.78
2022-07-31T08:05:07.787Z,100996.97
2022-07-31T08:07:42.862Z,100998.06
2022-07-31T08:10:10.237Z,100992.94
2022-07-31T08:12:37.207Z,100990.13
2022-07-31T08:15:04.407Z,100982.75
2022-07-31T08:17:30.865Z,100996.22
2022-07-31T08:19:57.341Z,100985.88
2022-07-31T08:22:23.777Z,100982.75
2022-07-31T08:24:50.239Z,100980.78
2022-07-31T08:27:39.308Z,100982.22
2022-07-31T08:30:07.861Z,100973.75
2022-07-31T08:32:34.424Z,100976.53
2022-07-31T08:35:00.906Z,100979.50
2022-07-31T08:38:01.801Z,100975.16
2022-07-31T08:40:13.849Z,100971.91
2022-07-31T08:42:40.231Z,100969.22
2022-07-31T08:45:08.007Z,100964.50
2022-07-31T08:47:36.159Z,100964.34
2022-07-31T08:50:05.489Z,100960.31
2022-07-31T08:52:34.214Z,100952.84
2022-07-31T08:55:06.114Z,100949.28
2022-07-31T08:57:32.990Z,100949.13
2022-07-31T08:59:59.447Z,100954.63
2022-07-31T09:02:25.924Z,100959.44
2022-07-31T09:04:52.978Z,100966.34
2022-07-31T09:07:19.579Z,100959.06
2022-07-31T09:09:52.176Z,100961.97
2022-07-31T09:12:34.259Z,100965.69
2022-07-31T09:15:01.503Z,100952.75
2022-07-31T09:17:35.662Z,100954.13
2022-07-31T09:20:03.606Z,100953.00
2022-07-31T09:22:31.190Z,100939.53
2022-07-31T09:25:08.694Z,100944.91
2022-07-31T09:27:36.212Z,100943.78
2022-07-31T09:30:02.889Z,100934.47
2022-07-31T09:32:29.361Z,100934.78
2022-07-31T09:35:09.850Z,100944.06
2022-07-31T09:37:36.615Z,100933.19
2022-07-31T09:40:04.057Z,100940.28
2022-07-31T09:42:48.602Z,100937.16
2022-07-31T09:45:24.189Z,100939.66
2022-07-31T09:48:08.521Z,100940.19
2022-07-31T09:50:52.053Z,100947.06
2022-07-31T09:53:19.716Z,100944.09
2022-07-31T09:55:53.010Z,100931.41
2022-07-31T09:58:20.706Z,100935.16
2022-07-31T10:00:50.130Z,100940.81
2022-07-31T10:03:18.732Z,100933.09
2022-07-31T10:05:46.837Z,100918.91
2022-07-31T10:08:14.234Z,100921.81
2022-07-31T10:10:43.829Z,100917.00
2022-07-31T10:13:15.316Z,100914.09
2022-07-31T10:15:45.610Z,100912.97
2022-07-31T10:18:12.431Z,100908.56
2022-07-31T10:20:41.280Z,100896.00
2022-07-31T10:23:22.670Z,100894.31
2022-07-31T10:25:54.554Z,100892.41
2022-07-31T10:28:22.242Z,100897.78
2022-07-31T10:30:49.923Z,100895.88
2022-07-31T10:33:42.611Z,100889.56
2022-07-31T10:36:18.333Z,100888.06
2022-07-31T10:38:58.515Z,100880.25
2022-07-31T10:41:41.399Z,100880.41
2022-07-31T10:44:16.706Z,100886.91
2022-07-31T10:46:43.212Z,100888.53
2022-07-31T10:49:10.491Z,100875.25
2022-07-31T10:51:50.860Z,100861.06
2022-07-31T10:54:17.476Z,100856.56
2022-07-31T10:56:46.189Z,100851.22
2022-07-31T10:59:12.928Z,100855.41
2022-07-31T11:02:05.744Z,100854.53
2022-07-31T11:04:32.706Z,100843.53
2022-07-31T11:07:00.026Z,100828.63
2022-07-31T11:09:29.137Z,100828.00
2022-07-31T11:11:56.458Z,100826.28
2022-07-31T11:14:37.715Z,100815.75
2022-07-31T11:17:04.714Z,100825.19
2022-07-31T11:19:43.488Z,100829.69
2022-07-31T11:22:31.697Z,100806.94
2022-07-31T11:24:59.172Z,100810.75
2022-07-31T11:27:33.020Z,100807.91
2022-07-31T11:30:11.006Z,100815.38
2022-07-31T11:32:39.345Z,100812.34
2022-07-31T11:35:06.238Z,100800.31
2022-07-31T11:37:46.580Z,100808.94
2022-07-31T11:40:22.318Z,100810.69
2022-07-31T11:43:23.101Z,100805.81
2022-07-31T11:45:52.601Z,100814.09
2022-07-31T11:48:20.435Z,100790.44
2022-07-31T11:50:48.753Z,100804.09
2022-07-31T11:53:16.071Z,100814.31
2022-07-31T11:55:57.162Z,100810.59
2022-07-31T11:58:28.948Z,100805.28
2022-07-31T12:00:58.311Z,100805.91
2022-07-31T12:03:30.319Z,100796.78
2022-07-31T12:05:56.937Z,100800.22
2022-07-31T12:08:25.672Z,100795.69
2022-07-31T12:11:02.612Z,100791.22
2022-07-31T12:13:30.136Z,100784.59
2022-07-31T12:16:07.986Z,100798.19
2022-07-31T12:18:48.783Z,100785.66
2022-07-31T12:21:16.590Z,100790.78
2022-07-31T12:23:46.496Z,100785.47
2022-07-31T12:26:23.082Z,100780.97
2022-07-31T12:29:11.700Z,100782.69
2022-07-31T12:31:49.444Z,100772.84
2022-07-31T12:34:35.107Z,100774.69
2022-07-31T12:37:04.716Z,100769.84
2022-07-31T12:39:54.334Z,100772.28
2022-07-31T12:42:30.851Z,100765.16
2022-07-31T12:45:18.502Z,100767.41
2022-07-31T12:47:51.748Z,100763.13
2022-07-31T12:50:22.799Z,100750.41
2022-07-31T12:52:49.394Z,100762.84
2022-07-31T12:55:17.357Z,100758.88
2022-07-31T12:57:51.344Z,100738.09
2022-07-31T13:00:22.433Z,100742.66
2022-07-31T13:02:49.164Z,100734.00
2022-07-31T13:05:15.817Z,100743.78
2022-07-31T13:07:42.242Z,100750.44
2022-07-31T13:10:19.910Z,100746.44
2022-07-31T13:12:50.609Z,100731.69
2022-07-31T13:15:18.131Z,100747.78
2022-07-31T13:17:48.109Z,100734.50
2022-07-31T13:20:18.279Z,100739.00
2022-07-31T13:22:44.707Z,100739.31
2022-07-31T13:25:11.183Z,100748.13
2022-07-31T13:27:37.643Z,100730.09
2022-07-31T13:30:05.493Z,100731.28
2022-07-31T13:32:32.060Z,100717.50
2022-07-31T13:35:27.880Z,100724.88
2022-07-31T13:37:46.401Z,100728.75
2022-07-31T13:40:13.199Z,100718.53
2022-07-31T13:42:39.701Z,100716.13
2022-07-31T13:45:08.559Z,100727.06
2022-07-31T13:47:51.504Z,100715.94
2022-07-31T13:50:19.445Z,100722.78
2022-07-31T13:52:45.904Z,100715.53
2022-07-31T13:55:12.435Z,100726.38
2022-07-31T13:57:38.824Z,100728.53
2022-07-31T14:00:06.258Z,100721.16
2022-07-31T14:02:32.724Z,100731.69
2022-07-31T14:04:59.201Z,100725.69
2022-07-31T14:07:45.632Z,100706.59
2022-07-31T14:10:14.935Z,100714.09
2022-07-31T14:12:43.639Z,100706.66
2022-07-31T14:15:10.702Z,100714.97
2022-07-31T14:17:37.184Z,100703.34
2022-07-31T14:20:04.073Z,100709.81
2022-07-31T14:22:30.814Z,100705.66
2022-07-31T14:24:57.216Z,100709.72
2022-07-31T14:27:23.617Z,100704.50
2022-07-31T14:29:50.087Z,100699.03
2022-07-31T14:32:16.568Z,100698.81
2022-07-31T14:34:43.063Z,100704.13
2022-07-31T14:37:09.453Z,100710.91
2022-07-31T14:39:35.880Z,100705.91
2022-07-31T14:42:09.194Z,100701.06
2022-07-31T14:44:35.653Z,100702.00
2022-07-31T14:47:02.199Z,100693.25
2022-07-31T14:50:07.071Z,100694.31
2022-07-31T14:52:15.317Z,100688.53
2022-07-31T14:54:41.771Z,100693.63
2022-07-31T14:57:08.307Z,100695.44
2022-07-31T14:59:34.740Z,100691.22
2022-07-31T15:02:01.152Z,100695.16
2022-07-31T15:04:27.616Z,100689.56
2022-07-31T15:07:07.656Z,100685.31
2022-07-31T15:09:40.489Z,100687.22
2022-07-31T15:12:07.312Z,100684.47
2022-07-31T15:14:33.948Z,100688.25
2022-07-31T15:17:00.408Z,100674.16
2022-07-31T15:19:26.845Z,100672.91
2022-07-31T15:22:09.811Z,100677.63
2022-07-31T15:24:45.520Z,100673.56
2022-07-31T15:27:16.175Z,100678.75
2022-07-31T15:30:04.867Z,100683.97
2022-07-31T15:32:29.596Z,100682.03
2022-07-31T15:34:56.105Z,100678.50
2022-07-31T15:37:22.573Z,100677.66
2022-07-31T15:40:01.369Z,100687.03
2022-07-31T15:42:34.036Z,100682.03
2022-07-31T15:45:00.641Z,100679.41
2022-07-31T15:47:27.068Z,100680.63
2022-07-31T15:49:53.585Z,100683.66
2022-07-31T15:52:20.120Z,100686.75
2022-07-31T15:54:47.005Z,100673.78
2022-07-31T15:57:13.723Z,100667.38
2022-07-31T15:59:41.337Z,100668.06
2022-07-31T16:02:07.746Z,100669.28
2022-07-31T16:04:34.978Z,100656.09
2022-07-31T16:07:01.755Z,100660.72
2022-07-31T16:10:14.870Z,100642.78
2022-07-31T16:12:35.466Z,100656.09
2022-07-31T16:15:02.521Z,100649.56
2022-07-31T16:17:37.765Z,100646.41
2022-07-31T16:20:26.476Z,100654.66
2022-07-31T16:22:56.237Z,100650.06
2022-07-31T16:25:23.801Z,100652.09
2022-07-31T16:27:50.238Z,100651.63
2022-07-31T16:30:16.922Z,100647.00
2022-07-31T16:32:43.368Z,100641.31
2022-07-31T16:35:11.444Z,100641.69
2022-07-31T16:37:51.516Z,100646.28
2022-07-31T16:40:28.191Z,100641.81
2022-07-31T16:43:49.365Z,100645.50
2022-07-31T16:45:54.118Z,100643.00
2022-07-31T16:48:21.051Z,100642.50
2022-07-31T16:50:53.635Z,100644.75
2022-07-31T16:54:11.170Z,100644.06
2022-07-31T16:56:10.637Z,100648.31
2022-07-31T16:58:37.073Z,100647.97
2022-07-31T17:01:04.282Z,100647.84
2022-07-31T17:03:59.504Z,100645.72
2022-07-31T17:06:17.481Z,100642.41
2022-07-31T17:08:43.948Z,100647.13
2022-07-31T17:11:10.376Z,100644.31
2022-07-31T17:13:36.759Z,100635.16
2022-07-31T17:16:03.370Z,100649.91
2022-07-31T17:18:29.779Z,100661.03
2022-07-31T17:20:56.872Z,100642.81
2022-07-31T17:23:43.209Z,100654.25
2022-07-31T17:26:22.155Z,100661.00
2022-07-31T17:28:50.455Z,100663.94
2022-07-31T17:31:17.566Z,100652.97
2022-07-31T17:33:58.485Z,100669.03
2022-07-31T17:36:26.872Z,100648.38
2022-07-31T17:38:53.328Z,100675.75
2022-07-31T17:41:24.645Z,100673.59
2022-07-31T17:43:53.634Z,100666.94
2022-07-31T17:46:28.502Z,100668.13
2022-07-31T17:49:03.229Z,100670.31
2022-07-31T17:51:29.660Z,100678.31
2022-07-31T17:53:59.555Z,100679.66
2022-07-31T17:56:26.679Z,100676.16
2022-07-31T17:58:53.276Z,100671.47
2022-07-31T18:01:19.732Z,100674.78
2022-07-31T18:03:46.209Z,100683.47
2022-07-31T18:06:12.631Z,100679.47
2022-07-31T18:08:39.079Z,100682.13
2022-07-31T18:11:06.520Z,100690.50
2022-07-31T18:13:47.820Z,100689.31
2022-07-31T18:16:15.361Z,100701.31
2022-07-31T18:18:41.826Z,100697.50
2022-07-31T18:21:08.287Z,100699.81
2022-07-31T18:23:34.743Z,100695.19
2022-07-31T18:26:01.423Z,100696.72
2022-07-31T18:28:27.853Z,100707.91
2022-07-31T18:30:54.435Z,100705.25
2022-07-31T18:33:21.878Z,100715.25
2022-07-31T18:35:48.347Z,100703.09
2022-07-31T18:38:14.803Z,100711.28
2022-07-31T18:40:41.369Z,100707.94
2022-07-31T18:43:08.282Z,100714.28
2022-07-31T18:45:34.738Z,100716.09
2022-07-31T18:48:01.260Z,100725.59
2022-07-31T18:50:59.053Z,100722.94
2022-07-31T18:53:16.080Z,100720.25
2022-07-31T18:55:43.781Z,100722.09
2022-07-31T18:58:10.441Z,100726.75
2022-07-31T19:00:36.947Z,100727.25
2022-07-31T19:03:04.452Z,100722.09
2022-07-31T19:05:31.722Z,100727.22
2022-07-31T19:07:58.154Z,100725.41
2022-07-31T19:10:29.609Z,100725.53
2022-07-31T19:12:58.700Z,100731.50
2022-07-31T19:15:25.231Z,100732.16
2022-07-31T19:17:51.706Z,100733.16
2022-07-31T19:20:41.244Z,100742.28
2022-07-31T19:23:12.663Z,100740.97
2022-07-31T19:26:02.416Z,100741.63
2022-07-31T19:28:27.199Z,100749.09
2022-07-31T19:30:54.643Z,100741.47
2022-07-31T19:33:21.132Z,100747.44
2022-07-31T19:35:55.265Z,100745.56
2022-07-31T19:38:25.302Z,100751.06
2022-07-31T19:40:51.773Z,100755.38
2022-07-31T19:43:20.269Z,100749.06
2022-07-31T19:45:58.804Z,100758.50
2022-07-31T19:48:35.205Z,100753.34
2022-07-31T19:51:01.767Z,100770.91
2022-07-31T19:53:28.276Z,100767.06
2022-07-31T19:55:54.923Z,100770.56
2022-07-31T19:58:21.661Z,100775.16
2022-07-31T20:00:48.121Z,100774.66
2022-07-31T20:03:14.593Z,100774.28
2022-07-31T20:05:41.085Z,100780.06
2022-07-31T20:08:08.009Z,100771.41
2022-07-31T20:10:34.487Z,100791.66
2022-07-31T20:13:00.908Z,100794.09
2022-07-31T20:15:27.516Z,100788.56
2022-07-31T20:18:26.880Z,100798.97
2022-07-31T20:20:56.869Z,100795.78
2022-07-31T20:23:23.712Z,100806.22
2022-07-31T20:25:50.243Z,100811.34
2022-07-31T20:28:16.757Z,100810.00
2022-07-31T20:30:43.187Z,100818.78
2022-07-31T20:33:11.260Z,100821.94
2022-07-31T20:35:48.718Z,100812.91
2022-07-31T20:38:20.709Z,100815.22
2022-07-31T20:40:53.329Z,100819.19
2022-07-31T20:43:26.101Z,100816.72
2022-07-31T20:45:53.720Z,100816.19
2022-07-31T20:48:24.577Z,100823.31
2022-07-31T20:50:52.043Z,100820.09
2022-07-31T20:53:19.485Z,100827.00
2022-07-31T20:55:49.121Z,100833.06
2022-07-31T20:58:16.567Z,100835.81
2022-07-31T21:00:43.045Z,100832.91
2022-07-31T21:03:09.637Z,100826.03
2022-07-31T21:05:36.076Z,100831.25
2022-07-31T21:08:02.892Z,100835.63
2022-07-31T21:10:30.049Z,100829.22
2022-07-31T21:12:57.293Z,100833.53
2022-07-31T21:15:42.444Z,100835.00
2022-07-31T21:18:13.214Z,100829.75
2022-07-31T21:20:52.211Z,100829.25
2022-07-31T21:23:21.620Z,100838.34
2022-07-31T21:25:48.444Z,100835.81
2022-07-31T21:28:15.165Z,100838.13
2022-07-31T21:30:41.632Z,100836.75
2022-07-31T21:33:09.252Z,100827.16
2022-07-31T21:35:37.562Z,100839.56
2022-07-31T21:38:04.473Z,100835.94
2022-07-31T21:40:33.803Z,100830.59
2022-07-31T21:43:00.543Z,100837.91
2022-07-31T21:45:39.559Z,100839.34
2022-07-31T21:48:15.305Z,100839.16
2022-07-31T21:50:43.357Z,100843.94
2022-07-31T21:53:10.072Z,100839.16
2022-07-31T21:55:38.090Z,100850.75
2022-07-31T21:58:05.657Z,100843.72
2022-07-31T22:00:34.053Z,100846.03
2022-07-31T22:03:01.005Z,100860.44
2022-07-31T22:05:46.162Z,100856.47
2022-07-31T22:08:13.945Z,100854.56
2022-07-31T22:10:40.552Z,100856.03
2022-07-31T22:13:07.608Z,100857.28
2022-07-31T22:15:58.988Z,100866.25
2022-07-31T22:18:20.960Z,100860.41
2022-07-31T22:20:47.569Z,100870.00
2022-07-31T22:23:14.314Z,100866.03
2022-07-31T22:25:41.746Z,100865.19
2022-07-31T22:28:08.646Z,100864.38
2022-07-31T22:30:35.252Z,100874.78
2022-07-31T22:33:01.817Z,100872.31
2022-07-31T22:35:28.890Z,100874.28
2022-07-31T22:37:55.707Z,100866.97
2022-07-31T22:40:24.233Z,100871.75
2022-07-31T22:42:56.043Z,100875.19
2022-07-31T22:45:24.311Z,100874.66
2022-07-31T22:47:50.910Z,100865.38
2022-07-31T22:50:17.591Z,100879.31
2022-07-31T22:52:44.053Z,100882.44
2022-07-31T22:55:11.864Z,100896.59
2022-07-31T22:57:40.752Z,100888.34
2022-07-31T23:00:09.763Z,100903.63
2022-07-31T23:02:36.938Z,100896.13
2022-07-31T23:05:03.678Z,100899.28
2022-07-31T23:07:30.142Z,100897.09
2022-07-31T23:09:56.591Z,100897.72
2022-07-31T23:12:28.284Z,100904.56
2022-07-31T23:14:55.994Z,100896.75
2022-07-31T23:17:23.208Z,100908.00
2022-07-31T23:19:54.140Z,100901.81
2022-07-31T23:22:30.732Z,100902.94
2022-07-31T23:25:00.493Z,100909.25
2022-07-31T23:27:26.923Z,100905.38
2022-07-31T23:29:53.379Z,100905.94
2022-07-31T23:32:19.809Z,100901.53
2022-07-31T23:34:46.248Z,100900.41
2022-07-31T23:37:12.899Z,100909.69
2022-07-31T23:39:39.932Z,100901.03
2022-07-31T23:42:24.874Z,100899.63
2022-07-31T23:44:51.293Z,100894.94
2022-07-31T23:47:17.738Z,100907.00
2022-07-31T23:49:44.201Z,100900.06
2022-07-31T23:52:10.813Z,100898.41
2022-07-31T23:54:37.420Z,100897.34
2022-07-31T23:57:04.089Z,100891.75
2022-07-31T23:59:30.550Z,100894.66
